createdAt,value
2023-03-26T00:00:25.419Z,0.30
2023-03-26T00:01:25.338Z,0.30
2023-03-26T00:02:25.429Z,0.30
2023-03-26T00:03:25.208Z,0.30
2023-03-26T00:04:25.352Z,0.20
2023-03-26T00:05:25.212Z,0.40
2023-03-26T00:06:25.299Z,0.30
2023-03-26T00:07:25.164Z,0.30
2023-03-26T00:08:25.316Z,0.20
2023-03-26T00:09:25.124Z,0.20
2023-03-26T00:10:25.148Z,0.30
2023-03-26T00:11:25.100Z,0.40
2023-03-26T00:12:46.211Z,0.20
2023-03-26T00:13:25.075Z,0.20
2023-03-26T00:14:46.217Z,0.30
2023-03-26T00:15:25.043Z,0.20
2023-03-26T00:16:25.206Z,0.20
2023-03-26T00:17:25.122Z,0.30
2023-03-26T00:18:26.175Z,0.30
2023-03-26T00:19:24.994Z,0.20
2023-03-26T00:21:34.513Z,0.20
2023-03-26T00:22:34.301Z,0.30
2023-03-26T00:23:34.402Z,0.20
2023-03-26T00:24:34.274Z,0.40
2023-03-26T00:25:35.418Z,0.20
2023-03-26T00:26:34.248Z,0.30
2023-03-26T00:27:34.312Z,0.20
2023-03-26T00:28:34.228Z,0.20
2023-03-26T00:29:34.337Z,0.20
2023-03-26T00:30:34.241Z,0.10
2023-03-26T00:31:34.386Z,0.30
2023-03-26T00:32:34.198Z,0.40
2023-03-26T00:33:34.316Z,0.30
2023-03-26T00:34:34.166Z,0.30
2023-03-26T00:35:34.227Z,0.30
2023-03-26T00:36:34.131Z,0.20
2023-03-26T00:37:36.284Z,0.10
2023-03-26T00:38:34.108Z,0.20
2023-03-26T00:39:34.199Z,0.10
2023-03-26T00:40:34.081Z,0.10
2023-03-26T00:41:34.219Z,0.30
2023-03-26T00:42:34.066Z,0.30
2023-03-26T00:43:34.105Z,0.30
2023-03-26T00:44:34.033Z,0.30
2023-03-26T00:45:34.135Z,0.30
2023-03-26T00:46:34.070Z,0.20
2023-03-26T00:47:34.176Z,0.40
2023-03-26T00:48:44.624Z,0.50
2023-03-26T00:49:34.974Z,0.20
2023-03-26T00:50:36.065Z,0.30
2023-03-26T00:51:34.091Z,0.30
2023-03-26T00:52:34.015Z,0.30
2023-03-26T00:53:33.923Z,0.30
2023-03-26T00:54:33.982Z,0.40
2023-03-26T00:55:33.876Z,0.30
2023-03-26T00:56:55.017Z,0.30
2023-03-26T00:57:35.864Z,0.30
2023-03-26T00:58:33.915Z,0.10
2023-03-26T00:59:33.859Z,0.30
2023-03-26T01:00:33.952Z,0.30
2023-03-26T01:01:33.893Z,0.30
2023-03-26T01:02:33.926Z,0.20
2023-03-26T01:03:33.956Z,0.30
2023-03-26T01:04:34.002Z,0.40
2023-03-26T01:05:33.769Z,0.30
2023-03-26T01:06:33.854Z,0.30
2023-03-26T01:07:33.723Z,0.30
2023-03-26T01:08:33.820Z,0.50
2023-03-26T01:09:33.706Z,0.30
2023-03-26T01:10:33.823Z,0.20
2023-03-26T01:11:33.704Z,0.30
2023-03-26T01:12:33.754Z,0.50
2023-03-26T01:13:33.652Z,0.30
2023-03-26T01:14:33.698Z,0.30
2023-03-26T01:15:33.650Z,0.30
2023-03-26T01:16:33.729Z,0.30
2023-03-26T01:17:33.630Z,0.40
2023-03-26T01:18:34.683Z,0.20
2023-03-26T01:19:33.574Z,0.20
2023-03-26T01:20:35.691Z,0.20
2023-03-26T01:21:33.544Z,0.30
2023-03-26T01:22:33.794Z,0.20
2023-03-26T01:23:33.601Z,0.20
2023-03-26T01:24:33.576Z,0.20
2023-03-26T01:25:33.505Z,0.20
2023-03-26T01:26:33.606Z,0.30
2023-03-26T01:27:33.471Z,0.20
2023-03-26T01:28:33.535Z,0.30
2023-03-26T01:29:33.483Z,0.20
2023-03-26T01:30:33.640Z,0.20
2023-03-26T01:31:33.411Z,0.20
2023-03-26T01:32:33.550Z,0.20
2023-03-26T01:33:33.491Z,0.30
2023-03-26T01:34:35.532Z,0.30
2023-03-26T01:35:33.421Z,0.40
2023-03-26T01:36:33.480Z,0.50
2023-03-26T01:37:33.339Z,0.30
2023-03-26T01:38:34.382Z,0.30
2023-03-26T01:39:33.321Z,0.30
2023-03-26T01:40:33.452Z,0.40
2023-03-26T01:41:33.312Z,0.20
2023-03-26T01:42:33.396Z,0.40
2023-03-26T01:43:33.267Z,0.30
2023-03-26T01:44:33.303Z,0.20
2023-03-26T01:45:33.227Z,0.30
2023-03-26T01:46:33.368Z,0.30
2023-03-26T01:47:33.237Z,0.20
2023-03-26T01:48:33.285Z,0.20
2023-03-26T01:49:33.173Z,0.30
2023-03-26T01:50:34.359Z,0.40
2023-03-26T01:51:33.153Z,0.20
2023-03-26T01:52:33.169Z,0.20
2023-03-26T01:53:33.143Z,0.30
2023-03-26T01:54:33.197Z,0.20
2023-03-26T01:55:33.096Z,0.40
2023-03-26T01:56:34.169Z,0.30
2023-03-26T01:57:33.069Z,0.30
2023-03-26T01:58:33.170Z,0.50
2023-03-26T01:59:33.072Z,0.40
2023-03-26T02:00:33.205Z,0.40
2023-03-26T02:01:33.089Z,0.40
2023-03-26T02:02:34.162Z,0.20
2023-03-26T02:03:33.005Z,0.40
2023-03-26T02:04:33.113Z,0.60
2023-03-26T02:05:33.017Z,0.30
2023-03-26T02:06:34.034Z,0.40
2023-03-26T02:07:32.948Z,0.40
2023-03-26T02:08:33.051Z,0.30
2023-03-26T02:09:32.925Z,0.30
2023-03-26T02:10:33.080Z,0.40
2023-03-26T02:11:35.891Z,0.40
2023-03-26T02:12:33.023Z,0.40
2023-03-26T02:13:32.863Z,0.30
2023-03-26T02:14:32.953Z,0.30
2023-03-26T02:15:32.839Z,0.30
2023-03-26T02:16:33.111Z,0.40
2023-03-26T02:17:32.873Z,0.40
2023-03-26T02:18:32.918Z,0.30
2023-03-26T02:19:32.815Z,0.20
2023-03-26T02:20:35.174Z,0.30
2023-03-26T02:21:32.968Z,0.40
2023-03-26T02:22:32.978Z,0.30
2023-03-26T02:23:32.747Z,0.30
2023-03-26T02:24:32.812Z,0.30
2023-03-26T02:25:32.710Z,0.30
2023-03-26T02:26:32.789Z,0.40
2023-03-26T02:27:32.687Z,0.20
2023-03-26T02:28:32.702Z,0.30
2023-03-26T02:29:32.678Z,0.50
2023-03-26T02:30:32.720Z,0.40
2023-03-26T02:31:32.654Z,0.30
2023-03-26T02:32:32.806Z,0.30
2023-03-26T02:33:32.614Z,0.30
2023-03-26T02:34:32.642Z,0.30
2023-03-26T02:35:32.661Z,0.40
2023-03-26T02:36:32.813Z,0.30
2023-03-26T02:37:32.552Z,0.40
2023-03-26T02:38:53.647Z,0.40
2023-03-26T02:39:32.571Z,0.30
2023-03-26T02:40:32.614Z,0.30
2023-03-26T02:41:32.524Z,0.30
2023-03-26T02:42:32.656Z,0.40
2023-03-26T02:43:32.469Z,0.30
2023-03-26T02:44:32.573Z,0.50
2023-03-26T02:45:32.503Z,1.00
2023-03-26T02:46:32.688Z,0.30
2023-03-26T02:47:32.449Z,0.40
2023-03-26T02:48:33.478Z,0.40
2023-03-26T02:49:32.388Z,0.20
2023-03-26T02:50:32.488Z,0.20
2023-03-26T02:51:32.358Z,0.30
2023-03-26T02:52:32.518Z,0.30
2023-03-26T02:53:32.358Z,0.30
2023-03-26T02:54:33.478Z,0.20
2023-03-26T02:55:32.308Z,0.50
2023-03-26T02:56:32.537Z,0.40
2023-03-26T02:57:32.283Z,0.40
2023-03-26T02:58:32.319Z,0.50
2023-03-26T02:59:32.302Z,0.30
2023-03-26T03:00:33.749Z,0.50
2023-03-26T03:01:32.300Z,0.30
2023-03-26T03:02:32.425Z,0.30
2023-03-26T03:03:32.224Z,0.40
2023-03-26T03:04:32.328Z,0.30
2023-03-26T03:05:32.197Z,0.40
2023-03-26T03:06:33.393Z,0.30
2023-03-26T03:07:32.163Z,0.30
2023-03-26T03:08:32.204Z,0.30
2023-03-26T03:09:32.179Z,0.30
2023-03-26T03:10:32.324Z,0.40
2023-03-26T03:11:32.124Z,0.30
2023-03-26T03:12:32.200Z,0.60
2023-03-26T03:13:32.071Z,0.30
2023-03-26T03:14:32.221Z,0.40
2023-03-26T03:15:32.046Z,0.30
2023-03-26T03:16:32.227Z,0.30
2023-03-26T03:17:32.055Z,0.50
2023-03-26T03:18:32.072Z,0.40
2023-03-26T03:19:31.999Z,0.40
2023-03-26T03:20:32.112Z,0.40
2023-03-26T03:21:31.961Z,0.70
2023-03-26T03:22:32.148Z,0.50
2023-03-26T03:23:31.957Z,0.40
2023-03-26T03:24:34.180Z,0.40
2023-03-26T03:25:31.917Z,0.40
2023-03-26T03:26:32.022Z,0.40
2023-03-26T03:27:31.890Z,0.40
2023-03-26T03:28:31.953Z,0.40
2023-03-26T03:29:31.880Z,0.50
2023-03-26T03:31:41.282Z,0.40
2023-03-26T03:32:41.198Z,0.30
2023-03-26T03:33:41.304Z,0.50
2023-03-26T03:34:41.163Z,0.40
2023-03-26T03:35:42.233Z,0.30
2023-03-26T03:36:41.117Z,0.30
2023-03-26T03:37:41.274Z,0.20
2023-03-26T03:38:41.083Z,0.40
2023-03-26T03:39:41.114Z,0.50
2023-03-26T03:40:41.075Z,0.30
2023-03-26T03:42:02.131Z,0.40
2023-03-26T03:42:41.056Z,0.70
2023-03-26T03:43:41.190Z,0.40
2023-03-26T03:44:41.005Z,0.50
2023-03-26T03:45:41.234Z,0.50
2023-03-26T03:46:41.045Z,0.40
2023-03-26T03:47:41.233Z,0.60
2023-03-26T03:48:40.954Z,0.50
2023-03-26T03:49:40.995Z,0.40
2023-03-26T03:50:40.930Z,0.50
2023-03-26T03:51:41.035Z,0.50
2023-03-26T03:52:40.916Z,0.50
2023-03-26T03:54:50.242Z,0.30
2023-03-26T03:55:50.127Z,0.30
2023-03-26T03:56:50.295Z,0.40
2023-03-26T03:57:50.494Z,0.40
2023-03-26T03:58:50.629Z,0.40
2023-03-26T03:59:50.077Z,0.50
2023-03-26T04:00:51.271Z,0.50
2023-03-26T04:01:51.029Z,0.50
2023-03-26T04:02:51.784Z,0.30
2023-03-26T04:03:52.509Z,0.40
2023-03-26T04:04:50.026Z,0.30
2023-03-26T04:05:50.180Z,0.60
2023-03-26T04:06:49.986Z,0.30
2023-03-26T04:07:50.128Z,0.40
2023-03-26T04:08:49.959Z,0.50
2023-03-26T04:09:50.102Z,0.30
2023-03-26T04:10:49.940Z,0.40
2023-03-26T04:12:11.987Z,0.50
2023-03-26T04:12:49.918Z,0.50
2023-03-26T04:13:51.513Z,0.40
2023-03-26T04:14:49.923Z,0.50
2023-03-26T04:15:50.065Z,0.40
2023-03-26T04:16:49.859Z,0.50
2023-03-26T04:17:49.933Z,0.40
2023-03-26T04:18:49.826Z,0.40
2023-03-26T04:19:49.926Z,0.30
2023-03-26T04:20:49.802Z,0.40
2023-03-26T04:22:59.550Z,0.40
2023-03-26T04:23:59.451Z,0.40
2023-03-26T04:25:00.515Z,0.40
2023-03-26T04:25:59.466Z,0.50
2023-03-26T04:26:59.534Z,0.50
2023-03-26T04:27:59.398Z,0.50
2023-03-26T04:28:59.478Z,0.40
2023-03-26T04:29:59.366Z,0.40
2023-03-26T04:30:59.385Z,0.40
2023-03-26T04:31:59.460Z,0.60
2023-03-26T04:32:59.386Z,0.50
2023-03-26T04:33:59.506Z,0.50
2023-03-26T04:34:59.331Z,0.40
2023-03-26T04:35:59.464Z,0.50
2023-03-26T04:36:59.289Z,0.40
2023-03-26T04:37:59.360Z,0.30
2023-03-26T04:38:59.275Z,0.30
2023-03-26T04:39:59.404Z,0.50
2023-03-26T04:40:59.228Z,0.30
2023-03-26T04:42:01.436Z,0.40
2023-03-26T04:42:59.211Z,0.40
2023-03-26T04:44:00.751Z,0.50
2023-03-26T04:44:59.195Z,0.50
2023-03-26T04:45:59.205Z,0.40
2023-03-26T04:46:59.161Z,0.50
2023-03-26T04:47:59.262Z,0.50
2023-03-26T04:49:01.078Z,0.40
2023-03-26T04:49:59.285Z,0.50
2023-03-26T04:50:59.118Z,0.30
2023-03-26T04:51:59.227Z,0.40
2023-03-26T04:52:59.101Z,0.40
2023-03-26T04:53:59.253Z,0.40
2023-03-26T04:54:59.050Z,0.40
2023-03-26T04:55:59.162Z,0.40
2023-03-26T04:56:59.053Z,0.40
2023-03-26T04:57:59.116Z,0.50
2023-03-26T04:58:58.997Z,0.50
2023-03-26T04:59:59.153Z,0.40
2023-03-26T05:00:58.987Z,0.40
2023-03-26T05:02:00.151Z,0.40
2023-03-26T05:03:00.044Z,0.50
2023-03-26T05:03:58.950Z,0.40
2023-03-26T05:04:59.094Z,0.30
2023-03-26T05:05:58.908Z,0.60
2023-03-26T05:07:00.053Z,0.30
2023-03-26T05:07:58.912Z,0.30
2023-03-26T05:08:58.989Z,0.40
2023-03-26T05:09:58.847Z,0.40
2023-03-26T05:10:58.898Z,0.40
2023-03-26T05:12:00.576Z,0.50
2023-03-26T05:13:01.023Z,0.40
2023-03-26T05:14:00.050Z,0.50
2023-03-26T05:14:58.974Z,0.20
2023-03-26T05:15:58.797Z,0.30
2023-03-26T05:16:58.903Z,0.40
2023-03-26T05:17:58.816Z,0.30
2023-03-26T05:19:00.833Z,0.40
2023-03-26T05:19:58.736Z,0.60
2023-03-26T05:20:58.777Z,0.40
2023-03-26T05:21:58.685Z,0.50
2023-03-26T05:22:58.809Z,0.50
2023-03-26T05:23:58.669Z,1.90
2023-03-26T05:24:58.858Z,1.70
2023-03-26T05:25:58.675Z,1.60
2023-03-26T05:26:58.771Z,0.90
2023-03-26T05:27:58.610Z,1.40
2023-03-26T05:29:00.758Z,0.90
2023-03-26T05:29:58.580Z,0.80
2023-03-26T05:30:58.762Z,0.50
2023-03-26T05:31:58.592Z,0.90
2023-03-26T05:32:58.770Z,0.50
2023-03-26T05:33:58.601Z,0.60
2023-03-26T05:34:58.722Z,0.40
2023-03-26T05:35:58.535Z,0.90
2023-03-26T05:36:58.602Z,0.80
2023-03-26T05:37:58.493Z,0.40
2023-03-26T05:38:58.584Z,0.70
2023-03-26T05:39:58.461Z,1.50
2023-03-26T05:41:03.047Z,0.80
2023-03-26T05:41:58.484Z,1.00
2023-03-26T05:42:58.795Z,0.90
2023-03-26T05:44:00.895Z,0.60
2023-03-26T05:45:02.316Z,0.60
2023-03-26T05:45:58.392Z,0.50
2023-03-26T05:46:58.428Z,0.50
2023-03-26T05:47:58.419Z,0.90
2023-03-26T05:49:01.667Z,0.40
2023-03-26T05:49:58.342Z,0.30
2023-03-26T05:50:58.408Z,0.70
2023-03-26T05:51:58.337Z,0.40
2023-03-26T05:52:58.439Z,0.40
2023-03-26T05:53:58.268Z,0.70
2023-03-26T05:54:58.475Z,0.70
2023-03-26T05:55:58.598Z,0.70
2023-03-26T05:56:58.357Z,0.80
2023-03-26T05:57:58.228Z,0.60
2023-03-26T05:58:58.344Z,0.60
2023-03-26T05:59:58.195Z,0.90
2023-03-26T06:00:58.279Z,1.40
2023-03-26T06:01:58.195Z,1.30
2023-03-26T06:02:59.489Z,1.30
2023-03-26T06:03:58.272Z,1.00
2023-03-26T06:04:58.249Z,0.70
2023-03-26T06:06:02.564Z,1.00
2023-03-26T06:06:58.123Z,0.90
2023-03-26T06:07:58.209Z,0.90
2023-03-26T06:09:01.431Z,0.50
2023-03-26T06:09:58.061Z,0.80
2023-03-26T06:10:58.264Z,0.40
2023-03-26T06:11:58.039Z,1.30
2023-03-26T06:13:19.235Z,0.60
2023-03-26T06:13:58.011Z,0.80
2023-03-26T06:14:59.045Z,0.70
2023-03-26T06:15:58.018Z,0.90
2023-03-26T06:16:59.428Z,1.30
2023-03-26T06:17:57.986Z,0.70
2023-03-26T06:18:59.250Z,0.90
2023-03-26T06:19:57.934Z,1.10
2023-03-26T06:20:58.984Z,0.50
2023-03-26T06:21:57.904Z,0.50
2023-03-26T06:22:57.964Z,1.20
2023-03-26T06:23:57.880Z,0.60
2023-03-26T06:24:57.952Z,1.20
2023-03-26T06:25:57.842Z,0.70
2023-03-26T06:26:57.936Z,1.10
2023-03-26T06:27:57.820Z,0.60
2023-03-26T06:28:58.034Z,0.90
2023-03-26T06:29:57.793Z,0.60
2023-03-26T06:30:58.104Z,0.60
2023-03-26T06:32:06.155Z,0.70
2023-03-26T06:32:58.784Z,1.40
2023-03-26T06:33:57.833Z,0.80
2023-03-26T06:34:57.731Z,0.50
2023-03-26T06:35:59.873Z,1.10
2023-03-26T06:36:57.727Z,2.00
2023-03-26T06:37:59.872Z,0.50
2023-03-26T06:38:57.674Z,0.50
2023-03-26T06:39:57.812Z,0.80
2023-03-26T06:40:57.651Z,0.70
2023-03-26T06:41:57.763Z,0.90
2023-03-26T06:43:08.831Z,1.00
2023-03-26T06:43:58.614Z,0.90
2023-03-26T06:44:57.761Z,0.70
2023-03-26T06:45:57.707Z,0.70
2023-03-26T06:46:57.730Z,0.60
2023-03-26T06:47:57.602Z,0.60
2023-03-26T06:48:57.674Z,0.60
2023-03-26T06:49:57.534Z,0.80
2023-03-26T06:50:57.696Z,1.10
2023-03-26T06:51:57.539Z,0.70
2023-03-26T06:52:57.802Z,0.60
2023-03-26T06:53:57.487Z,0.80
2023-03-26T06:54:57.588Z,0.80
2023-03-26T06:55:57.453Z,0.90
2023-03-26T06:56:57.612Z,0.60
2023-03-26T06:57:57.994Z,0.90
2023-03-26T06:59:18.589Z,1.00
2023-03-26T06:59:57.430Z,1.10
2023-03-26T07:00:57.664Z,0.90
2023-03-26T07:01:57.369Z,0.80
2023-03-26T07:03:20.542Z,0.70
2023-03-26T07:04:00.064Z,0.80
2023-03-26T07:04:59.171Z,0.50
2023-03-26T07:05:57.813Z,0.80
2023-03-26T07:06:57.405Z,0.50
2023-03-26T07:07:57.297Z,0.70
2023-03-26T07:08:57.518Z,0.50
2023-03-26T07:09:57.333Z,0.50
2023-03-26T07:10:57.690Z,0.60
2023-03-26T07:11:57.280Z,0.60
2023-03-26T07:12:57.405Z,0.40
2023-03-26T07:13:57.240Z,0.40
2023-03-26T07:14:59.693Z,0.40
2023-03-26T07:15:57.188Z,0.50
2023-03-26T07:16:57.328Z,0.40
2023-03-26T07:17:57.170Z,0.50
2023-03-26T07:18:57.308Z,0.50
2023-03-26T07:19:57.126Z,0.50
2023-03-26T07:20:57.362Z,0.70
2023-03-26T07:21:57.640Z,0.50
2023-03-26T07:22:59.227Z,0.70
2023-03-26T07:23:57.075Z,0.50
2023-03-26T07:24:57.228Z,0.80
2023-03-26T07:25:57.075Z,0.50
2023-03-26T07:26:57.844Z,0.50
2023-03-26T07:27:57.018Z,0.50
2023-03-26T07:29:03.998Z,0.30
2023-03-26T07:29:58.016Z,0.40
2023-03-26T07:30:57.927Z,0.50
2023-03-26T07:31:57.102Z,0.60
2023-03-26T07:32:58.185Z,0.40
2023-03-26T07:33:56.962Z,0.60
2023-03-26T07:34:58.066Z,0.60
2023-03-26T07:35:56.947Z,0.40
2023-03-26T07:36:59.746Z,0.60
2023-03-26T07:37:57.254Z,0.30
2023-03-26T07:38:57.457Z,0.60
2023-03-26T07:39:56.923Z,0.70
2023-03-26T07:41:03.254Z,0.50
2023-03-26T07:41:58.831Z,0.60
2023-03-26T07:43:02.607Z,0.50
2023-03-26T07:43:57.289Z,0.50
2023-03-26T07:45:02.534Z,0.60
2023-03-26T07:45:58.320Z,0.50
2023-03-26T07:46:57.669Z,0.50
2023-03-26T07:47:58.016Z,0.50
2023-03-26T07:48:56.942Z,0.60
2023-03-26T07:49:56.724Z,0.60
2023-03-26T07:51:04.679Z,0.50
2023-03-26T07:51:56.714Z,0.60
2023-03-26T07:52:56.793Z,0.50
2023-03-26T07:53:56.705Z,0.50
2023-03-26T07:54:56.695Z,0.70
2023-03-26T07:55:56.666Z,0.60
2023-03-26T07:56:58.850Z,0.60
2023-03-26T07:57:56.658Z,0.60
2023-03-26T07:58:56.716Z,0.80
2023-03-26T07:59:56.623Z,0.50
2023-03-26T08:00:56.842Z,0.60
2023-03-26T08:01:56.594Z,0.60
2023-03-26T08:02:57.293Z,0.60
2023-03-26T08:03:56.628Z,0.60
2023-03-26T08:04:56.631Z,0.60
2023-03-26T08:05:59.504Z,0.60
2023-03-26T08:06:59.659Z,0.60
2023-03-26T08:07:56.677Z,0.70
2023-03-26T08:08:56.698Z,0.40
2023-03-26T08:09:56.463Z,0.60
2023-03-26T08:10:59.356Z,0.50
2023-03-26T08:11:57.253Z,0.60
2023-03-26T08:13:00.929Z,0.50
2023-03-26T08:13:57.100Z,0.50
2023-03-26T08:15:00.128Z,0.60
2023-03-26T08:15:56.900Z,0.30
2023-03-26T08:16:57.798Z,0.60
2023-03-26T08:17:56.401Z,0.70
2023-03-26T08:18:56.457Z,0.70
2023-03-26T08:19:56.331Z,0.60
2023-03-26T08:20:56.634Z,0.30
2023-03-26T08:21:56.588Z,0.60
2023-03-26T08:22:56.370Z,0.50
2023-03-26T08:23:56.291Z,0.40
2023-03-26T08:24:56.294Z,0.50
2023-03-26T08:25:56.241Z,0.70
2023-03-26T08:26:56.297Z,0.60
2023-03-26T08:27:56.232Z,0.50
2023-03-26T08:28:56.312Z,0.70
2023-03-26T08:29:57.822Z,0.70
2023-03-26T08:30:56.440Z,0.40
2023-03-26T08:31:57.919Z,0.60
2023-03-26T08:32:56.361Z,0.40
2023-03-26T08:33:56.160Z,0.50
2023-03-26T08:34:57.442Z,0.70
2023-03-26T08:35:56.685Z,0.50
2023-03-26T08:36:57.958Z,0.50
2023-03-26T08:38:01.564Z,0.40
2023-03-26T08:38:57.470Z,0.70
2023-03-26T08:39:57.928Z,0.40
2023-03-26T08:40:56.326Z,0.50
2023-03-26T08:42:02.818Z,0.40
2023-03-26T08:43:07.690Z,0.70
2023-03-26T08:44:00.906Z,0.40
2023-03-26T08:45:04.185Z,0.60
2023-03-26T08:45:56.261Z,0.40
2023-03-26T08:46:56.203Z,0.40
2023-03-26T08:47:56.477Z,0.50
2023-03-26T08:48:56.613Z,0.70
2023-03-26T08:49:55.979Z,0.50
2023-03-26T08:50:56.221Z,0.50
2023-03-26T08:51:55.905Z,0.50
2023-03-26T08:52:56.059Z,0.60
2023-03-26T08:53:55.893Z,0.40
2023-03-26T08:54:58.127Z,0.60
2023-03-26T08:55:55.843Z,0.50
2023-03-26T08:56:56.026Z,0.50
2023-03-26T08:57:55.828Z,0.50
2023-03-26T08:58:55.944Z,0.70
2023-03-26T08:59:55.827Z,0.50
2023-03-26T09:00:57.136Z,0.50
2023-03-26T09:01:55.807Z,0.40
2023-03-26T09:02:57.582Z,0.60
2023-03-26T09:03:55.798Z,0.60
2023-03-26T09:04:55.853Z,0.50
2023-03-26T09:05:58.936Z,0.50
2023-03-26T09:06:55.709Z,0.60
2023-03-26T09:07:55.854Z,0.50
2023-03-26T09:08:55.677Z,0.30
2023-03-26T09:09:56.814Z,0.30
2023-03-26T09:10:55.818Z,0.40
2023-03-26T09:11:58.757Z,0.60
2023-03-26T09:12:55.626Z,0.60
2023-03-26T09:13:58.245Z,0.50
2023-03-26T09:14:55.621Z,0.40
2023-03-26T09:15:56.095Z,0.50
2023-03-26T09:16:55.574Z,0.50
2023-03-26T09:17:58.059Z,0.50
2023-03-26T09:18:55.577Z,0.50
2023-03-26T09:20:16.664Z,0.60
2023-03-26T09:20:56.178Z,0.50
2023-03-26T09:21:55.611Z,0.60
2023-03-26T09:22:55.493Z,0.50
2023-03-26T09:23:56.609Z,0.60
2023-03-26T09:24:55.473Z,0.50
2023-03-26T09:26:16.610Z,0.40
2023-03-26T09:26:55.860Z,0.30
2023-03-26T09:27:55.578Z,0.50
2023-03-26T09:28:55.425Z,0.50
2023-03-26T09:29:55.493Z,0.40
2023-03-26T09:30:55.877Z,0.60
2023-03-26T09:31:56.065Z,0.70
2023-03-26T09:32:55.763Z,0.50
2023-03-26T09:33:58.164Z,0.50
2023-03-26T09:34:55.471Z,0.50
2023-03-26T09:35:56.910Z,0.60
2023-03-26T09:36:58.607Z,0.50
2023-03-26T09:37:56.499Z,0.60
2023-03-26T09:38:55.953Z,0.60
2023-03-26T09:39:55.614Z,0.40
2023-03-26T09:40:56.033Z,0.40
2023-03-26T09:41:55.936Z,0.50
2023-03-26T09:42:57.919Z,0.40
2023-03-26T09:43:56.119Z,0.50
2023-03-26T09:44:57.131Z,0.50
2023-03-26T09:45:56.155Z,0.30
2023-03-26T09:46:56.720Z,0.30
2023-03-26T09:47:55.663Z,0.60
2023-03-26T09:48:57.397Z,0.60
2023-03-26T09:49:55.500Z,0.50
2023-03-26T09:50:55.772Z,0.40
2023-03-26T09:51:56.507Z,0.50
2023-03-26T09:52:56.376Z,0.50
2023-03-26T09:53:55.387Z,0.40
2023-03-26T09:54:55.698Z,0.70
2023-03-26T09:55:55.289Z,0.60
2023-03-26T09:56:55.574Z,0.60
2023-03-26T09:57:55.401Z,0.40
2023-03-26T09:58:56.136Z,0.80
2023-03-26T09:59:55.377Z,0.40
2023-03-26T10:00:58.349Z,0.40
2023-03-26T10:01:55.464Z,0.50
2023-03-26T10:02:56.005Z,0.40
2023-03-26T10:03:57.562Z,0.50
2023-03-26T10:04:55.771Z,0.40
2023-03-26T10:05:57.931Z,0.50
2023-03-26T10:06:55.228Z,0.50
2023-03-26T10:07:57.100Z,0.50
2023-03-26T10:08:55.188Z,0.40
2023-03-26T10:09:59.509Z,0.40
2023-03-26T10:10:55.672Z,0.40
2023-03-26T10:11:55.661Z,0.60
2023-03-26T10:13:02.124Z,0.30
2023-03-26T10:13:56.211Z,0.40
2023-03-26T10:14:58.142Z,0.30
2023-03-26T10:15:55.171Z,0.40
2023-03-26T10:17:16.193Z,0.40
2023-03-26T10:17:55.345Z,0.80
2023-03-26T10:18:57.153Z,0.40
2023-03-26T10:19:58.246Z,0.30
2023-03-26T10:20:54.858Z,0.40
2023-03-26T10:21:54.784Z,0.40
2023-03-26T10:22:54.718Z,0.40
2023-03-26T10:23:54.702Z,0.50
2023-03-26T10:24:54.920Z,0.40
2023-03-26T10:25:54.762Z,0.50
2023-03-26T10:27:10.113Z,0.50
2023-03-26T10:27:55.689Z,0.40
2023-03-26T10:28:55.064Z,0.50
2023-03-26T10:29:54.602Z,0.40
2023-03-26T10:30:54.791Z,0.50
2023-03-26T10:31:56.707Z,0.50
2023-03-26T10:32:54.684Z,0.50
2023-03-26T10:33:54.563Z,0.30
2023-03-26T10:34:54.781Z,0.40
2023-03-26T10:35:55.150Z,0.50
2023-03-26T10:36:54.603Z,0.30
2023-03-26T10:37:54.788Z,0.40
2023-03-26T10:38:56.666Z,0.50
2023-03-26T10:39:54.511Z,0.50
2023-03-26T10:40:54.656Z,0.40
2023-03-26T10:41:54.443Z,0.70
2023-03-26T10:42:54.592Z,0.50
2023-03-26T10:44:05.217Z,0.40
2023-03-26T10:44:55.442Z,0.40
2023-03-26T10:45:54.514Z,0.40
2023-03-26T10:46:54.390Z,0.50
2023-03-26T10:47:54.526Z,0.30
2023-03-26T10:48:54.363Z,0.60
2023-03-26T10:49:54.411Z,0.40
2023-03-26T10:50:54.800Z,0.40
2023-03-26T10:51:54.388Z,0.40
2023-03-26T10:52:54.296Z,0.40
2023-03-26T10:53:54.349Z,0.50
2023-03-26T10:54:54.273Z,0.30
2023-03-26T10:55:54.313Z,0.50
2023-03-26T10:56:54.328Z,1.80
2023-03-26T10:57:54.329Z,2.60
2023-03-26T10:58:54.219Z,0.50
2023-03-26T10:59:56.340Z,0.40
2023-03-26T11:00:54.340Z,0.40
2023-03-26T11:01:54.342Z,0.30
2023-03-26T11:02:55.809Z,0.60
2023-03-26T11:03:54.295Z,0.30
2023-03-26T11:04:54.144Z,0.50
2023-03-26T11:05:54.269Z,0.40
2023-03-26T11:06:54.112Z,0.40
2023-03-26T11:07:54.230Z,0.30
2023-03-26T11:08:54.117Z,0.30
2023-03-26T11:10:15.126Z,0.30
2023-03-26T11:10:54.234Z,0.50
2023-03-26T11:11:54.149Z,0.40
2023-03-26T11:12:54.036Z,0.30
2023-03-26T11:13:56.161Z,0.40
2023-03-26T11:14:54.049Z,0.40
2023-03-26T11:15:54.095Z,0.40
2023-03-26T11:16:55.409Z,0.40
2023-03-26T11:17:54.545Z,0.40
2023-03-26T11:18:53.965Z,0.40
2023-03-26T11:19:53.986Z,0.30
2023-03-26T11:20:54.166Z,0.40
2023-03-26T11:21:53.996Z,0.60
2023-03-26T11:22:53.909Z,0.40
2023-03-26T11:24:05.660Z,0.30
2023-03-26T11:24:54.947Z,0.30
2023-03-26T11:25:53.869Z,0.40
2023-03-26T11:26:53.985Z,0.20
2023-03-26T11:27:53.920Z,0.40
2023-03-26T11:29:04.149Z,0.30
2023-03-26T11:29:54.877Z,0.50
2023-03-26T11:30:54.066Z,0.40
2023-03-26T11:31:54.912Z,0.30
2023-03-26T11:32:53.803Z,0.40
2023-03-26T11:33:54.911Z,0.50
2023-03-26T11:34:53.765Z,0.20
2023-03-26T11:35:53.819Z,0.30
2023-03-26T11:36:53.720Z,0.30
2023-03-26T11:37:54.625Z,0.40
2023-03-26T11:38:53.756Z,0.30
2023-03-26T11:39:55.198Z,0.30
2023-03-26T11:40:53.799Z,0.30
2023-03-26T11:41:53.826Z,0.50
2023-03-26T11:42:53.834Z,0.50
2023-03-26T11:43:53.650Z,0.40
2023-03-26T11:44:56.048Z,0.40
2023-03-26T11:45:53.668Z,0.20
2023-03-26T11:46:53.694Z,0.30
2023-03-26T11:47:53.828Z,0.40
2023-03-26T11:48:53.565Z,0.30
2023-03-26T11:49:53.601Z,0.50
2023-03-26T11:50:53.839Z,0.20
2023-03-26T11:51:53.651Z,0.30
2023-03-26T11:52:53.504Z,0.10
2023-03-26T11:53:53.514Z,0.40
2023-03-26T11:54:53.514Z,0.30
2023-03-26T11:55:53.530Z,0.30
2023-03-26T11:57:05.266Z,0.20
2023-03-26T11:57:54.433Z,0.40
2023-03-26T11:58:53.552Z,0.30
2023-03-26T11:59:57.583Z,0.30
2023-03-26T12:00:53.523Z,0.20
2023-03-26T12:01:55.495Z,0.30
2023-03-26T12:02:53.433Z,0.50
2023-03-26T12:03:53.375Z,0.30
2023-03-26T12:04:53.440Z,0.30
2023-03-26T12:05:54.769Z,0.20
2023-03-26T12:06:53.315Z,0.30
2023-03-26T12:07:53.423Z,0.20
2023-03-26T12:08:53.304Z,0.30
2023-03-26T12:09:53.320Z,0.20
2023-03-26T12:10:53.399Z,0.20
2023-03-26T12:11:53.340Z,0.30
2023-03-26T12:12:53.656Z,0.20
2023-03-26T12:13:53.634Z,0.30
2023-03-26T12:14:53.617Z,0.20
2023-03-26T12:15:53.254Z,0.10
2023-03-26T12:16:53.242Z,0.10
2023-03-26T12:17:53.341Z,0.30
2023-03-26T12:18:53.916Z,0.30
2023-03-26T12:19:53.190Z,0.30
2023-03-26T12:20:53.272Z,0.20
2023-03-26T12:21:53.208Z,0.30
2023-03-26T12:22:53.094Z,0.10
2023-03-26T12:23:53.111Z,0.30
2023-03-26T12:24:53.065Z,0.30
2023-03-26T12:25:53.136Z,0.20
2023-03-26T12:26:53.314Z,0.20
2023-03-26T12:27:53.169Z,0.30
2023-03-26T12:28:53.014Z,0.30
2023-03-26T12:29:53.223Z,0.30
2023-03-26T12:30:53.139Z,0.30
2023-03-26T12:31:53.141Z,0.20
2023-03-26T12:32:53.801Z,0.40
2023-03-26T12:33:54.110Z,0.20
2023-03-26T12:34:53.512Z,0.40
2023-03-26T12:35:53.048Z,0.30
2023-03-26T12:36:53.843Z,0.20
2023-03-26T12:37:54.112Z,0.20
2023-03-26T12:39:16.024Z,0.20
2023-03-26T12:40:09.419Z,0.30
2023-03-26T12:40:54.092Z,0.20
2023-03-26T12:44:43.454Z,0.20
2023-03-26T12:44:51.383Z,0.20
2023-03-26T12:44:56.289Z,0.20
2023-03-26T12:44:58.956Z,0.20
2023-03-26T12:47:46.130Z,0.40
2023-03-26T12:47:55.588Z,0.40
2023-03-26T12:48:00.342Z,0.20
2023-03-26T12:48:53.820Z,0.20
2023-03-26T12:49:55.676Z,0.20
2023-03-26T12:50:52.995Z,0.20
2023-03-26T12:51:52.810Z,0.20
2023-03-26T12:52:52.708Z,0.30
2023-03-26T12:53:53.749Z,0.40
2023-03-26T12:54:52.669Z,0.20
2023-03-26T12:55:52.736Z,0.40
2023-03-26T12:57:12.773Z,0.30
2023-03-26T12:57:53.636Z,0.40
2023-03-26T12:58:52.663Z,0.30
2023-03-26T12:59:52.601Z,0.30
2023-03-26T13:00:52.758Z,0.30
2023-03-26T13:01:52.657Z,0.40
2023-03-26T13:02:52.671Z,0.40
2023-03-26T13:03:52.952Z,0.30
2023-03-26T13:05:05.145Z,0.30
2023-03-26T13:06:14.638Z,0.40
2023-03-26T13:07:01.806Z,0.40
2023-03-26T13:07:53.658Z,0.30
2023-03-26T13:08:53.548Z,0.20
2023-03-26T13:09:53.162Z,0.30
2023-03-26T13:10:52.575Z,0.30
2023-03-26T13:11:54.303Z,0.40
2023-03-26T13:12:52.555Z,0.40
2023-03-26T13:13:52.444Z,0.30
2023-03-26T13:14:52.478Z,0.30
2023-03-26T13:15:52.681Z,0.30
2023-03-26T13:16:52.624Z,0.30
2023-03-26T13:17:52.462Z,0.30
2023-03-26T13:18:52.404Z,0.40
2023-03-26T13:19:52.358Z,0.40
2023-03-26T13:20:52.401Z,0.40
2023-03-26T13:21:53.515Z,0.30
2023-03-26T13:22:52.423Z,0.50